KVIH/VIH METAR and TAF weather

Enter ICAO airport designator
Station Type Date Time Source
KVIH METAR 2019/12/05 22:53 UTC NOAA

KVIH 052253Z AUTO 16009KT 10SM SCT110 13/01 A2993 RMK AO2 SLP135 T01330006


Station Type Date Time Source
KVIH Decoded METAR 2019/12/05 22:53 UTC NOAA

ROLLA/VICHY ROLLA NATIONAL, MO, United States (KVIH) 38-08N 91-46W 333M
Dec 05, 2019 - 05:53 PM EST / 2019.12.05 2253 UTC
Wind: from the SSE (160 degrees) at 10 MPH (9 KT):0
Visibility: 10 mile(s):0
Sky conditions: partly cloudy
Temperature: 55.9 F (13.3 C)
Dew Point: 33.1 F (0.6 C)
Relative Humidity: 41%
Pressure (altimeter): 29.93 in. Hg (1013 hPa)
ob: KVIH 052253Z AUTO 16009KT 10SM SCT110 13/01 A2993 RMK AO2 SLP135 T01330006
cycle: 23

Station Type Date Time Source
KVIH TAF UTC NOAA

Error!

Example: see airport list